createdAt,value
2022-10-05T00:00:04.044Z,16.50
2022-10-05T00:05:18.781Z,16.50
2022-10-05T00:10:24.717Z,16.50
2022-10-05T00:15:28.466Z,16.50
2022-10-05T00:20:32.104Z,16.50
2022-10-05T00:25:37.192Z,16.50
2022-10-05T00:30:41.242Z,16.40
2022-10-05T00:35:45.064Z,16.40
2022-10-05T00:41:03.014Z,16.40
2022-10-05T00:46:10.370Z,16.40
2022-10-05T00:51:26.975Z,16.40
2022-10-05T00:56:49.993Z,16.40
2022-10-05T01:02:01.138Z,16.40
2022-10-05T01:07:16.045Z,16.30
2022-10-05T01:12:29.801Z,16.30
2022-10-05T01:17:41.899Z,16.30
2022-10-05T01:23:08.786Z,16.30
2022-10-05T01:28:17.938Z,16.30
2022-10-05T01:33:28.169Z,16.30
2022-10-05T01:38:44.597Z,16.30
2022-10-05T01:43:54.031Z,16.30
2022-10-05T01:49:11.945Z,16.30
2022-10-05T01:54:27.437Z,16.20
2022-10-05T01:59:47.971Z,16.20
2022-10-05T02:05:01.938Z,16.20
2022-10-05T02:10:13.092Z,16.20
2022-10-05T02:15:25.044Z,16.20
2022-10-05T02:20:33.104Z,16.20
2022-10-05T02:25:40.922Z,16.20
2022-10-05T02:30:53.437Z,16.10
2022-10-05T02:36:01.421Z,16.10
2022-10-05T02:41:13.780Z,16.10
2022-10-05T02:46:32.346Z,16.10
2022-10-05T02:51:46.169Z,16.20
2022-10-05T02:56:59.291Z,16.10
2022-10-05T03:02:13.935Z,16.10
2022-10-05T03:07:24.664Z,16.10
2022-10-05T03:12:43.803Z,16.10
2022-10-05T03:17:58.790Z,16.10
2022-10-05T03:23:05.355Z,16.10
2022-10-05T03:28:18.504Z,16.10
2022-10-05T03:33:37.409Z,16.10
2022-10-05T03:38:48.866Z,16.10
2022-10-05T03:44:17.788Z,16.00
2022-10-05T03:49:32.256Z,16.00
2022-10-05T03:54:39.672Z,16.00
2022-10-05T03:59:50.798Z,16.00
2022-10-05T04:05:03.379Z,16.00
2022-10-05T04:10:15.748Z,16.00
2022-10-05T04:15:31.021Z,16.00
2022-10-05T04:20:43.209Z,16.00
2022-10-05T04:25:51.618Z,16.00
2022-10-05T04:30:56.749Z,15.90
2022-10-05T04:36:14.416Z,15.90
2022-10-05T04:41:31.462Z,15.90
2022-10-05T04:46:52.062Z,15.90
2022-10-05T04:52:06.516Z,15.90
2022-10-05T04:57:15.333Z,15.90
2022-10-05T05:02:28.079Z,15.90
2022-10-05T05:07:42.912Z,15.90
2022-10-05T05:12:56.050Z,15.80
2022-10-05T05:18:27.116Z,15.80
2022-10-05T05:23:41.936Z,15.80
2022-10-05T05:28:55.198Z,15.80
2022-10-05T05:34:07.718Z,15.80
2022-10-05T05:39:25.007Z,15.80
2022-10-05T05:44:38.583Z,15.80
2022-10-05T05:50:02.904Z,15.70
2022-10-05T05:55:16.495Z,15.70
2022-10-05T06:00:23.198Z,15.70
2022-10-05T06:05:36.763Z,15.70
2022-10-05T06:10:48.348Z,15.70
2022-10-05T06:15:56.830Z,15.70
2022-10-05T06:21:04.674Z,15.70
2022-10-05T06:26:23.492Z,15.70
2022-10-05T06:31:38.264Z,15.70
2022-10-05T06:36:46.740Z,15.70
2022-10-05T06:42:15.533Z,15.70
2022-10-05T06:47:45.006Z,15.70
2022-10-05T06:53:17.293Z,15.70
2022-10-05T06:58:37.474Z,15.70
2022-10-05T07:03:52.265Z,15.70
2022-10-05T07:09:14.261Z,15.70
2022-10-05T07:14:36.710Z,15.70
2022-10-05T07:19:52.526Z,15.70
2022-10-05T07:25:03.440Z,15.80
2022-10-05T07:30:14.880Z,15.80
2022-10-05T07:35:43.581Z,15.80
2022-10-05T07:40:54.378Z,15.80
2022-10-05T07:46:06.346Z,15.90
2022-10-05T07:51:19.187Z,15.90
2022-10-05T07:56:30.593Z,15.90
2022-10-05T08:01:37.853Z,16.00
2022-10-05T08:06:49.531Z,16.00
2022-10-05T08:12:01.976Z,16.10
2022-10-05T08:17:16.537Z,16.10
2022-10-05T08:22:25.401Z,16.10
2022-10-05T08:27:36.991Z,16.20
2022-10-05T08:32:50.441Z,16.20
2022-10-05T08:37:55.172Z,16.30
2022-10-05T08:43:12.252Z,16.30
2022-10-05T08:48:33.630Z,16.30
2022-10-05T08:54:05.488Z,16.40
2022-10-05T08:59:46.753Z,16.40
2022-10-05T09:05:19.333Z,16.40
2022-10-05T09:10:51.497Z,16.50
2022-10-05T09:16:27.431Z,16.50
2022-10-05T09:21:41.756Z,16.60
2022-10-05T09:26:50.953Z,16.60
2022-10-05T09:32:16.229Z,16.60
2022-10-05T09:37:36.904Z,16.70
2022-10-05T09:43:05.957Z,16.70
2022-10-05T09:48:45.313Z,16.80
2022-10-05T09:54:28.859Z,16.80
2022-10-05T10:00:03.965Z,16.90
2022-10-05T10:05:39.317Z,17.00
2022-10-05T10:11:03.210Z,17.10
2022-10-05T10:16:23.640Z,17.20
2022-10-05T10:21:53.714Z,17.20
2022-10-05T10:27:16.647Z,17.30
2022-10-05T10:32:41.177Z,17.40
2022-10-05T10:38:28.621Z,17.50
2022-10-05T10:44:02.575Z,17.60
2022-10-05T10:49:24.455Z,17.70
2022-10-05T10:54:52.720Z,17.70
2022-10-05T11:00:17.504Z,17.80
2022-10-05T11:05:37.596Z,17.80
2022-10-05T11:11:08.532Z,17.90
2022-10-05T11:16:45.169Z,17.90
2022-10-05T11:22:07.056Z,18.00
2022-10-05T11:27:50.236Z,18.00
2022-10-05T11:33:27.639Z,18.20
2022-10-05T11:39:12.095Z,18.20
2022-10-05T11:44:47.399Z,18.30
2022-10-05T11:50:05.694Z,18.40
2022-10-05T11:55:25.460Z,18.50
2022-10-05T12:00:37.514Z,18.70
2022-10-05T12:05:53.492Z,18.90
2022-10-05T12:11:08.218Z,19.00
2022-10-05T12:16:18.586Z,19.00
2022-10-05T12:21:32.879Z,19.10
2022-10-05T12:26:41.742Z,19.20
2022-10-05T12:31:54.594Z,19.20
2022-10-05T12:37:05.202Z,19.30
2022-10-05T12:42:23.570Z,19.30
2022-10-05T12:47:36.273Z,19.30
2022-10-05T12:52:57.049Z,19.30
2022-10-05T12:58:13.680Z,19.30
2022-10-05T13:03:25.447Z,19.30
2022-10-05T13:08:37.759Z,19.40
2022-10-05T13:13:53.571Z,19.40
2022-10-05T13:19:14.266Z,19.40
2022-10-05T13:24:24.749Z,19.40
2022-10-05T13:29:35.880Z,19.40
2022-10-05T13:34:47.805Z,19.40
2022-10-05T13:39:59.613Z,19.50
2022-10-05T13:45:14.186Z,19.40
2022-10-05T13:50:22.022Z,19.40
2022-10-05T13:55:41.164Z,19.40
2022-10-05T14:00:51.756Z,19.30
2022-10-05T14:05:58.074Z,19.30
2022-10-05T14:11:21.382Z,19.30
2022-10-05T14:16:26.833Z,19.30
2022-10-05T14:21:32.368Z,19.30
2022-10-05T14:26:38.648Z,19.20
2022-10-05T14:31:50.622Z,19.20
2022-10-05T14:36:57.943Z,19.20
2022-10-05T14:42:15.792Z,19.00
2022-10-05T14:47:23.809Z,18.90
2022-10-05T14:52:32.804Z,18.90
2022-10-05T14:57:42.637Z,18.70
2022-10-05T15:03:03.373Z,18.70
2022-10-05T15:08:25.201Z,18.60
2022-10-05T15:13:33.881Z,18.50
2022-10-05T15:18:44.971Z,18.50
2022-10-05T15:23:53.835Z,18.40
2022-10-05T15:29:02.910Z,18.30
2022-10-05T15:34:15.428Z,18.30
2022-10-05T15:39:28.670Z,18.20
2022-10-05T15:44:52.247Z,18.20
2022-10-05T15:50:08.157Z,18.20
2022-10-05T15:55:26.500Z,18.10
2022-10-05T16:00:33.972Z,18.10
2022-10-05T16:06:04.071Z,18.00
2022-10-05T16:11:16.978Z,18.00
2022-10-05T16:16:29.390Z,18.00
2022-10-05T16:21:45.863Z,18.00
2022-10-05T16:26:58.301Z,18.00
2022-10-05T16:32:07.314Z,18.00
2022-10-05T16:37:18.456Z,18.00
2022-10-05T16:42:35.854Z,17.90
2022-10-05T16:47:47.730Z,17.90
2022-10-05T16:52:58.021Z,17.90
2022-10-05T16:58:05.079Z,17.90
2022-10-05T17:03:27.345Z,17.80
2022-10-05T17:09:01.984Z,17.90
2022-10-05T17:14:24.772Z,17.90
2022-10-05T17:19:43.170Z,17.80
2022-10-05T17:24:55.489Z,17.90
2022-10-05T17:30:21.341Z,17.90
2022-10-05T17:35:51.881Z,17.90
2022-10-05T17:41:17.304Z,17.90
2022-10-05T17:46:39.227Z,17.90
2022-10-05T17:52:15.154Z,17.90
2022-10-05T17:57:25.533Z,17.90
2022-10-05T18:02:44.003Z,17.90
2022-10-05T18:07:50.063Z,17.90
2022-10-05T18:13:21.328Z,18.00
2022-10-05T18:18:58.267Z,18.00
2022-10-05T18:24:20.818Z,18.00
2022-10-05T18:30:05.426Z,18.00
2022-10-05T18:35:13.574Z,18.00
2022-10-05T18:40:27.705Z,18.10
2022-10-05T18:45:42.864Z,18.10
2022-10-05T18:50:54.736Z,18.20
2022-10-05T18:56:04.661Z,18.10
2022-10-05T19:01:39.973Z,18.20
2022-10-05T19:06:51.505Z,18.20
2022-10-05T19:12:02.409Z,18.20
2022-10-05T19:17:24.206Z,18.20
2022-10-05T19:22:42.230Z,18.30
2022-10-05T19:27:56.082Z,18.30
2022-10-05T19:33:17.633Z,18.10
2022-10-05T19:38:28.343Z,18.00
2022-10-05T19:43:51.727Z,17.90
2022-10-05T19:48:56.954Z,17.80
2022-10-05T19:54:03.863Z,17.80
2022-10-05T19:59:14.879Z,17.70
2022-10-05T20:04:33.618Z,17.70
2022-10-05T20:09:52.912Z,17.70
2022-10-05T20:15:25.578Z,17.60
2022-10-05T20:20:41.630Z,17.60
2022-10-05T20:26:07.910Z,17.60
2022-10-05T20:31:12.573Z,17.50
2022-10-05T20:36:17.677Z,17.50
2022-10-05T20:41:21.358Z,17.50
2022-10-05T20:46:25.200Z,17.50
2022-10-05T20:51:30.367Z,17.50
2022-10-05T20:56:34.748Z,17.40
2022-10-05T21:01:39.225Z,17.40
2022-10-05T21:06:44.361Z,17.40
2022-10-05T21:11:50.067Z,17.20
2022-10-05T21:16:53.939Z,17.00
2022-10-05T21:21:59.137Z,16.80
2022-10-05T21:27:03.403Z,16.80
2022-10-05T21:32:11.254Z,16.70
2022-10-05T21:37:16.544Z,16.70
2022-10-05T21:42:20.240Z,16.60
2022-10-05T21:47:23.954Z,16.50
2022-10-05T21:52:29.137Z,16.50
2022-10-05T21:57:34.721Z,16.50
2022-10-05T22:02:38.575Z,16.40
2022-10-05T22:07:43.659Z,16.40
2022-10-05T22:12:47.503Z,16.30
2022-10-05T22:17:51.450Z,16.30
2022-10-05T22:22:56.524Z,16.20
2022-10-05T22:28:00.345Z,16.20
2022-10-05T22:33:04.229Z,16.10
2022-10-05T22:38:09.243Z,16.10
2022-10-05T22:43:13.728Z,16.10
2022-10-05T22:48:17.461Z,16.10
2022-10-05T22:53:22.496Z,16.00
2022-10-05T22:58:26.742Z,16.00
2022-10-05T23:03:31.286Z,15.90
2022-10-05T23:08:38.137Z,15.90
2022-10-05T23:13:42.297Z,15.90
2022-10-05T23:18:48.700Z,15.80
2022-10-05T23:23:53.765Z,15.80
2022-10-05T23:28:57.393Z,15.80
2022-10-05T23:34:01.672Z,15.70
2022-10-05T23:39:06.749Z,15.70
2022-10-05T23:44:10.518Z,15.60
2022-10-05T23:49:14.794Z,15.60
2022-10-05T23:54:19.720Z,15.60
2022-10-05T23:59:23.509Z,15.50
